sensor_id;sensor_type;location;lat;lon;timestamp;P1;durP1;ratioP1;P2;durP2;ratioP2
11510;SDS011;5812;48.864;9.190;2023-02-01T00:00:46;2.53;;;2.53;;
11510;SDS011;5812;48.864;9.190;2023-02-01T00:03:11;2.47;;;2.47;;
11510;SDS011;5812;48.864;9.190;2023-02-01T00:05:38;2.13;;;2.13;;
11510;SDS011;5812;48.864;9.190;2023-02-01T00:08:03;2.13;;;2.13;;
11510;SDS011;5812;48.864;9.190;2023-02-01T00:10:29;1.87;;;1.87;;
11510;SDS011;5812;48.864;9.190;2023-02-01T00:12:55;2.30;;;2.30;;
11510;SDS011;5812;48.864;9.190;2023-02-01T00:15:20;2.10;;;2.10;;
11510;SDS011;5812;48.864;9.190;2023-02-01T00:17:47;1.80;;;1.80;;
11510;SDS011;5812;48.864;9.190;2023-02-01T00:20:17;1.93;;;1.93;;
11510;SDS011;5812;48.864;9.190;2023-02-01T00:22:43;1.80;;;1.80;;
11510;SDS011;5812;48.864;9.190;2023-02-01T00:25:08;1.70;;;1.70;;
11510;SDS011;5812;48.864;9.190;2023-02-01T00:27:34;1.63;;;1.63;;
11510;SDS011;5812;48.864;9.190;2023-02-01T00:29:59;1.90;;;1.90;;
11510;SDS011;5812;48.864;9.190;2023-02-01T00:32:25;1.73;;;1.73;;
11510;SDS011;5812;48.864;9.190;2023-02-01T00:34:51;1.73;;;1.73;;
11510;SDS011;5812;48.864;9.190;2023-02-01T00:37:16;1.60;;;1.60;;
11510;SDS011;5812;48.864;9.190;2023-02-01T00:39:42;1.70;;;1.70;;
11510;SDS011;5812;48.864;9.190;2023-02-01T00:42:07;1.50;;;1.50;;
11510;SDS011;5812;48.864;9.190;2023-02-01T00:44:33;1.60;;;1.60;;
11510;SDS011;5812;48.864;9.190;2023-02-01T00:47:00;1.60;;;1.60;;
11510;SDS011;5812;48.864;9.190;2023-02-01T00:49:26;1.63;;;1.63;;
11510;SDS011;5812;48.864;9.190;2023-02-01T00:51:54;1.57;;;1.57;;
11510;SDS011;5812;48.864;9.190;2023-02-01T00:54:20;1.50;;;1.50;;
11510;SDS011;5812;48.864;9.190;2023-02-01T00:56:46;1.73;;;1.73;;
11510;SDS011;5812;48.864;9.190;2023-02-01T00:59:11;1.70;;;1.70;;
11510;SDS011;5812;48.864;9.190;2023-02-01T01:01:37;1.80;;;1.80;;
11510;SDS011;5812;48.864;9.190;2023-02-01T01:04:03;1.37;;;1.37;;
11510;SDS011;5812;48.864;9.190;2023-02-01T01:06:30;1.80;;;1.80;;
11510;SDS011;5812;48.864;9.190;2023-02-01T01:08:57;1.73;;;1.73;;
11510;SDS011;5812;48.864;9.190;2023-02-01T01:11:26;1.53;;;1.53;;
11510;SDS011;5812;48.864;9.190;2023-02-01T01:13:53;1.70;;;1.70;;
11510;SDS011;5812;48.864;9.190;2023-02-01T01:16:20;1.70;;;1.70;;
11510;SDS011;5812;48.864;9.190;2023-02-01T01:18:47;1.83;;;1.83;;
11510;SDS011;5812;48.864;9.190;2023-02-01T01:21:14;1.60;;;1.60;;
11510;SDS011;5812;48.864;9.190;2023-02-01T01:23:40;1.60;;;1.60;;
11510;SDS011;5812;48.864;9.190;2023-02-01T01:26:07;1.50;;;1.50;;
11510;SDS011;5812;48.864;9.190;2023-02-01T01:28:35;1.47;;;1.47;;
11510;SDS011;5812;48.864;9.190;2023-02-01T01:31:01;1.73;;;1.73;;
11510;SDS011;5812;48.864;9.190;2023-02-01T01:33:27;1.23;;;1.23;;
11510;SDS011;5812;48.864;9.190;2023-02-01T01:35:52;1.50;;;1.50;;
11510;SDS011;5812;48.864;9.190;2023-02-01T01:38:18;1.27;;;1.27;;
11510;SDS011;5812;48.864;9.190;2023-02-01T01:40:47;1.10;;;1.10;;
11510;SDS011;5812;48.864;9.190;2023-02-01T01:43:15;1.60;;;1.60;;
11510;SDS011;5812;48.864;9.190;2023-02-01T01:45:44;1.70;;;1.70;;
11510;SDS011;5812;48.864;9.190;2023-02-01T01:48:16;1.30;;;1.30;;
11510;SDS011;5812;48.864;9.190;2023-02-01T01:50:56;1.17;;;1.17;;
11510;SDS011;5812;48.864;9.190;2023-02-01T01:53:27;1.03;;;1.03;;
11510;SDS011;5812;48.864;9.190;2023-02-01T01:55:56;0.93;;;0.93;;
11510;SDS011;5812;48.864;9.190;2023-02-01T01:58:23;1.43;;;1.43;;
11510;SDS011;5812;48.864;9.190;2023-02-01T02:00:51;1.20;;;1.20;;
11510;SDS011;5812;48.864;9.190;2023-02-01T02:03:19;1.07;;;1.07;;
11510;SDS011;5812;48.864;9.190;2023-02-01T02:05:52;1.03;;;1.03;;
11510;SDS011;5812;48.864;9.190;2023-02-01T02:08:21;1.00;;;1.00;;
11510;SDS011;5812;48.864;9.190;2023-02-01T02:10:48;0.77;;;0.77;;
11510;SDS011;5812;48.864;9.190;2023-02-01T02:18:37;0.93;;;0.93;;
11510;SDS011;5812;48.864;9.190;2023-02-01T02:21:41;1.40;;;1.40;;
11510;SDS011;5812;48.864;9.190;2023-02-01T02:33:18;1.00;;;1.00;;
11510;SDS011;5812;48.864;9.190;2023-02-01T02:36:01;1.17;;;1.17;;
11510;SDS011;5812;48.864;9.190;2023-02-01T02:38:40;0.80;;;0.80;;
11510;SDS011;5812;48.864;9.190;2023-02-01T02:41:29;1.00;;;1.00;;
11510;SDS011;5812;48.864;9.190;2023-02-01T02:44:39;1.23;;;1.23;;
11510;SDS011;5812;48.864;9.190;2023-02-01T02:47:30;1.20;;;1.20;;
11510;SDS011;5812;48.864;9.190;2023-02-01T02:50:33;1.20;;;1.20;;
11510;SDS011;5812;48.864;9.190;2023-02-01T02:53:35;1.13;;;1.13;;
11510;SDS011;5812;48.864;9.190;2023-02-01T02:56:27;1.37;;;1.37;;
11510;SDS011;5812;48.864;9.190;2023-02-01T02:59:14;1.00;;;1.00;;
11510;SDS011;5812;48.864;9.190;2023-02-01T03:02:01;1.33;;;1.33;;
11510;SDS011;5812;48.864;9.190;2023-02-01T03:04:45;1.27;;;1.27;;
11510;SDS011;5812;48.864;9.190;2023-02-01T03:07:12;1.10;;;1.10;;
11510;SDS011;5812;48.864;9.190;2023-02-01T03:09:40;1.10;;;1.10;;
11510;SDS011;5812;48.864;9.190;2023-02-01T03:12:09;1.40;;;1.40;;
11510;SDS011;5812;48.864;9.190;2023-02-01T03:15:03;1.37;;;1.37;;
11510;SDS011;5812;48.864;9.190;2023-02-01T03:17:34;1.13;;;1.13;;
11510;SDS011;5812;48.864;9.190;2023-02-01T03:20:04;1.40;;;1.40;;
11510;SDS011;5812;48.864;9.190;2023-02-01T03:22:32;1.27;;;1.27;;
11510;SDS011;5812;48.864;9.190;2023-02-01T03:25:21;1.53;;;1.53;;
11510;SDS011;5812;48.864;9.190;2023-02-01T03:27:56;1.23;;;1.23;;
11510;SDS011;5812;48.864;9.190;2023-02-01T03:30:59;1.33;;;1.33;;
11510;SDS011;5812;48.864;9.190;2023-02-01T03:33:19;1.30;;;1.30;;
11510;SDS011;5812;48.864;9.190;2023-02-01T03:38:50;1.40;;;1.40;;
11510;SDS011;5812;48.864;9.190;2023-02-01T03:44:12;1.57;;;1.57;;
11510;SDS011;5812;48.864;9.190;2023-02-01T03:46:41;1.77;;;1.77;;
11510;SDS011;5812;48.864;9.190;2023-02-01T03:49:21;1.30;;;1.30;;
11510;SDS011;5812;48.864;9.190;2023-02-01T03:51:54;1.20;;;1.20;;
11510;SDS011;5812;48.864;9.190;2023-02-01T03:54:22;1.60;;;1.60;;
11510;SDS011;5812;48.864;9.190;2023-02-01T03:56:49;1.60;;;1.60;;
11510;SDS011;5812;48.864;9.190;2023-02-01T03:59:17;1.20;;;1.20;;
11510;SDS011;5812;48.864;9.190;2023-02-01T04:01:43;1.20;;;1.20;;
11510;SDS011;5812;48.864;9.190;2023-02-01T04:04:08;1.50;;;1.50;;
11510;SDS011;5812;48.864;9.190;2023-02-01T04:06:34;1.60;;;1.60;;
11510;SDS011;5812;48.864;9.190;2023-02-01T04:09:00;1.30;;;1.30;;
11510;SDS011;5812;48.864;9.190;2023-02-01T04:11:27;1.00;;;1.00;;
11510;SDS011;5812;48.864;9.190;2023-02-01T04:13:54;1.23;;;1.23;;
11510;SDS011;5812;48.864;9.190;2023-02-01T04:16:19;1.40;;;1.40;;
11510;SDS011;5812;48.864;9.190;2023-02-01T04:18:45;1.27;;;1.27;;
11510;SDS011;5812;48.864;9.190;2023-02-01T04:21:10;1.37;;;1.37;;
11510;SDS011;5812;48.864;9.190;2023-02-01T04:23:36;1.33;;;1.33;;
11510;SDS011;5812;48.864;9.190;2023-02-01T04:26:02;1.60;;;1.60;;
11510;SDS011;5812;48.864;9.190;2023-02-01T04:28:29;1.30;;;1.30;;
11510;SDS011;5812;48.864;9.190;2023-02-01T04:30:55;1.63;;;1.63;;
11510;SDS011;5812;48.864;9.190;2023-02-01T04:33:21;1.23;;;1.23;;
11510;SDS011;5812;48.864;9.190;2023-02-01T04:35:47;1.33;;;1.33;;
11510;SDS011;5812;48.864;9.190;2023-02-01T04:38:13;1.23;;;1.23;;
11510;SDS011;5812;48.864;9.190;2023-02-01T04:40:38;1.40;;;1.40;;
11510;SDS011;5812;48.864;9.190;2023-02-01T04:43:04;1.30;;;1.30;;
11510;SDS011;5812;48.864;9.190;2023-02-01T04:45:30;1.50;;;1.50;;
11510;SDS011;5812;48.864;9.190;2023-02-01T04:47:55;1.33;;;1.33;;
11510;SDS011;5812;48.864;9.190;2023-02-01T04:50:21;1.00;;;1.00;;
11510;SDS011;5812;48.864;9.190;2023-02-01T04:52:48;1.27;;;1.27;;
11510;SDS011;5812;48.864;9.190;2023-02-01T04:55:14;1.10;;;1.10;;
11510;SDS011;5812;48.864;9.190;2023-02-01T04:57:40;1.27;;;1.27;;
11510;SDS011;5812;48.864;9.190;2023-02-01T05:00:06;1.10;;;1.10;;
11510;SDS011;5812;48.864;9.190;2023-02-01T05:02:35;1.27;;;1.27;;
11510;SDS011;5812;48.864;9.190;2023-02-01T05:05:01;1.30;;;1.30;;
11510;SDS011;5812;48.864;9.190;2023-02-01T05:07:27;1.47;;;1.47;;
11510;SDS011;5812;48.864;9.190;2023-02-01T05:09:52;1.50;;;1.50;;
11510;SDS011;5812;48.864;9.190;2023-02-01T05:12:18;1.60;;;1.60;;
11510;SDS011;5812;48.864;9.190;2023-02-01T05:15:02;1.10;;;1.10;;
11510;SDS011;5812;48.864;9.190;2023-02-01T05:17:28;1.10;;;1.10;;
11510;SDS011;5812;48.864;9.190;2023-02-01T05:19:53;1.60;;;1.60;;
11510;SDS011;5812;48.864;9.190;2023-02-01T05:22:19;1.10;;;1.10;;
11510;SDS011;5812;48.864;9.190;2023-02-01T05:24:44;1.17;;;1.17;;
11510;SDS011;5812;48.864;9.190;2023-02-01T05:27:10;1.30;;;1.30;;
11510;SDS011;5812;48.864;9.190;2023-02-01T05:29:36;1.20;;;1.20;;
11510;SDS011;5812;48.864;9.190;2023-02-01T05:32:02;1.20;;;1.20;;
11510;SDS011;5812;48.864;9.190;2023-02-01T05:34:27;1.30;;;1.30;;
11510;SDS011;5812;48.864;9.190;2023-02-01T05:36:53;1.40;;;1.40;;
11510;SDS011;5812;48.864;9.190;2023-02-01T05:39:19;1.40;;;1.40;;
11510;SDS011;5812;48.864;9.190;2023-02-01T05:41:44;1.33;;;1.33;;
11510;SDS011;5812;48.864;9.190;2023-02-01T05:44:10;1.30;;;1.30;;
11510;SDS011;5812;48.864;9.190;2023-02-01T05:46:36;1.70;;;1.70;;
11510;SDS011;5812;48.864;9.190;2023-02-01T05:49:03;1.50;;;1.50;;
11510;SDS011;5812;48.864;9.190;2023-02-01T05:51:29;1.50;;;1.50;;
11510;SDS011;5812;48.864;9.190;2023-02-01T05:53:54;2.03;;;2.03;;
11510;SDS011;5812;48.864;9.190;2023-02-01T05:56:20;1.90;;;1.90;;
11510;SDS011;5812;48.864;9.190;2023-02-01T05:58:45;1.40;;;1.40;;
11510;SDS011;5812;48.864;9.190;2023-02-01T06:01:11;1.30;;;1.30;;
11510;SDS011;5812;48.864;9.190;2023-02-01T06:03:37;1.40;;;1.40;;
11510;SDS011;5812;48.864;9.190;2023-02-01T06:06:02;1.07;;;1.07;;
11510;SDS011;5812;48.864;9.190;2023-02-01T06:08:29;1.40;;;1.40;;
11510;SDS011;5812;48.864;9.190;2023-02-01T06:11:01;1.63;;;1.63;;
11510;SDS011;5812;48.864;9.190;2023-02-01T06:13:30;1.10;;;1.10;;
11510;SDS011;5812;48.864;9.190;2023-02-01T06:15:57;1.10;;;1.10;;
11510;SDS011;5812;48.864;9.190;2023-02-01T06:18:23;1.40;;;1.40;;
11510;SDS011;5812;48.864;9.190;2023-02-01T06:20:52;1.70;;;1.70;;
11510;SDS011;5812;48.864;9.190;2023-02-01T06:23:22;1.37;;;1.37;;
11510;SDS011;5812;48.864;9.190;2023-02-01T06:25:49;1.23;;;1.23;;
11510;SDS011;5812;48.864;9.190;2023-02-01T06:28:15;1.50;;;1.50;;
11510;SDS011;5812;48.864;9.190;2023-02-01T06:30:41;1.30;;;1.30;;
11510;SDS011;5812;48.864;9.190;2023-02-01T06:33:10;1.60;;;1.60;;
11510;SDS011;5812;48.864;9.190;2023-02-01T06:35:38;1.50;;;1.50;;
11510;SDS011;5812;48.864;9.190;2023-02-01T06:38:04;1.60;;;1.60;;
11510;SDS011;5812;48.864;9.190;2023-02-01T06:40:29;1.50;;;1.50;;
11510;SDS011;5812;48.864;9.190;2023-02-01T06:42:55;1.93;;;1.93;;
11510;SDS011;5812;48.864;9.190;2023-02-01T06:45:22;2.20;;;2.20;;
11510;SDS011;5812;48.864;9.190;2023-02-01T06:47:47;1.60;;;1.60;;
11510;SDS011;5812;48.864;9.190;2023-02-01T06:50:13;2.33;;;2.33;;
11510;SDS011;5812;48.864;9.190;2023-02-01T06:52:38;2.13;;;2.13;;
11510;SDS011;5812;48.864;9.190;2023-02-01T06:55:04;2.07;;;2.07;;
11510;SDS011;5812;48.864;9.190;2023-02-01T06:57:30;2.03;;;2.03;;
11510;SDS011;5812;48.864;9.190;2023-02-01T06:59:58;2.20;;;2.20;;
11510;SDS011;5812;48.864;9.190;2023-02-01T07:02:23;1.90;;;1.90;;
11510;SDS011;5812;48.864;9.190;2023-02-01T07:04:49;2.93;;;2.93;;
11510;SDS011;5812;48.864;9.190;2023-02-01T07:07:14;2.00;;;2.00;;
11510;SDS011;5812;48.864;9.190;2023-02-01T07:09:40;2.40;;;2.40;;
11510;SDS011;5812;48.864;9.190;2023-02-01T07:12:06;2.47;;;2.47;;
11510;SDS011;5812;48.864;9.190;2023-02-01T07:14:31;2.87;;;2.87;;
11510;SDS011;5812;48.864;9.190;2023-02-01T07:16:57;2.50;;;2.50;;
11510;SDS011;5812;48.864;9.190;2023-02-01T07:19:22;2.40;;;2.40;;
11510;SDS011;5812;48.864;9.190;2023-02-01T07:21:48;2.60;;;2.60;;
11510;SDS011;5812;48.864;9.190;2023-02-01T07:24:14;2.33;;;2.33;;
11510;SDS011;5812;48.864;9.190;2023-02-01T07:26:39;2.63;;;2.63;;
11510;SDS011;5812;48.864;9.190;2023-02-01T07:29:05;2.37;;;2.37;;
11510;SDS011;5812;48.864;9.190;2023-02-01T07:31:30;2.47;;;2.47;;
11510;SDS011;5812;48.864;9.190;2023-02-01T07:33:56;2.77;;;2.77;;
11510;SDS011;5812;48.864;9.190;2023-02-01T07:36:23;2.80;;;2.80;;
11510;SDS011;5812;48.864;9.190;2023-02-01T07:38:48;2.47;;;2.47;;
11510;SDS011;5812;48.864;9.190;2023-02-01T07:41:16;2.40;;;2.40;;
11510;SDS011;5812;48.864;9.190;2023-02-01T07:43:42;3.53;;;3.53;;
11510;SDS011;5812;48.864;9.190;2023-02-01T07:46:09;2.20;;;2.20;;
11510;SDS011;5812;48.864;9.190;2023-02-01T07:48:35;2.50;;;2.50;;
11510;SDS011;5812;48.864;9.190;2023-02-01T07:53:34;2.93;;;2.93;;
11510;SDS011;5812;48.864;9.190;2023-02-01T07:56:01;3.00;;;3.00;;
11510;SDS011;5812;48.864;9.190;2023-02-01T07:58:27;2.93;;;2.93;;
11510;SDS011;5812;48.864;9.190;2023-02-01T08:00:53;2.70;;;2.70;;
11510;SDS011;5812;48.864;9.190;2023-02-01T08:03:38;3.07;;;3.07;;
11510;SDS011;5812;48.864;9.190;2023-02-01T08:06:04;2.63;;;2.63;;
11510;SDS011;5812;48.864;9.190;2023-02-01T08:08:31;2.70;;;2.70;;
11510;SDS011;5812;48.864;9.190;2023-02-01T08:11:01;2.87;;;2.87;;
11510;SDS011;5812;48.864;9.190;2023-02-01T08:13:28;2.30;;;2.30;;
11510;SDS011;5812;48.864;9.190;2023-02-01T08:16:00;3.47;;;3.47;;
11510;SDS011;5812;48.864;9.190;2023-02-01T08:18:27;2.93;;;2.93;;
11510;SDS011;5812;48.864;9.190;2023-02-01T08:20:53;2.50;;;2.50;;
11510;SDS011;5812;48.864;9.190;2023-02-01T08:23:20;2.47;;;2.47;;
11510;SDS011;5812;48.864;9.190;2023-02-01T08:25:47;2.20;;;2.20;;
11510;SDS011;5812;48.864;9.190;2023-02-01T08:28:12;2.60;;;2.60;;
11510;SDS011;5812;48.864;9.190;2023-02-01T08:30:38;2.80;;;2.80;;
11510;SDS011;5812;48.864;9.190;2023-02-01T08:33:05;2.20;;;2.20;;
11510;SDS011;5812;48.864;9.190;2023-02-01T08:35:37;2.57;;;2.57;;
11510;SDS011;5812;48.864;9.190;2023-02-01T08:38:03;2.47;;;2.47;;
11510;SDS011;5812;48.864;9.190;2023-02-01T08:40:29;1.83;;;1.83;;
11510;SDS011;5812;48.864;9.190;2023-02-01T08:42:56;2.20;;;2.20;;
11510;SDS011;5812;48.864;9.190;2023-02-01T08:45:22;2.33;;;2.33;;
11510;SDS011;5812;48.864;9.190;2023-02-01T08:47:53;1.80;;;1.80;;
11510;SDS011;5812;48.864;9.190;2023-02-01T08:50:19;2.27;;;2.27;;
11510;SDS011;5812;48.864;9.190;2023-02-01T08:52:45;2.70;;;2.70;;
11510;SDS011;5812;48.864;9.190;2023-02-01T08:55:11;2.60;;;2.60;;
11510;SDS011;5812;48.864;9.190;2023-02-01T08:57:37;3.20;;;3.20;;
11510;SDS011;5812;48.864;9.190;2023-02-01T09:00:04;2.37;;;2.37;;
11510;SDS011;5812;48.864;9.190;2023-02-01T09:02:31;1.97;;;1.97;;
11510;SDS011;5812;48.864;9.190;2023-02-01T09:04:57;2.37;;;2.37;;
11510;SDS011;5812;48.864;9.190;2023-02-01T09:07:22;2.73;;;2.73;;
11510;SDS011;5812;48.864;9.190;2023-02-01T09:09:48;2.87;;;2.87;;
11510;SDS011;5812;48.864;9.190;2023-02-01T09:12:13;2.17;;;2.17;;
11510;SDS011;5812;48.864;9.190;2023-02-01T09:14:39;2.47;;;2.47;;
11510;SDS011;5812;48.864;9.190;2023-02-01T09:17:05;2.87;;;2.87;;
11510;SDS011;5812;48.864;9.190;2023-02-01T09:19:31;2.20;;;2.20;;
11510;SDS011;5812;48.864;9.190;2023-02-01T09:21:57;3.20;;;3.20;;
11510;SDS011;5812;48.864;9.190;2023-02-01T09:24:23;2.30;;;2.30;;
11510;SDS011;5812;48.864;9.190;2023-02-01T09:26:49;2.73;;;2.73;;
11510;SDS011;5812;48.864;9.190;2023-02-01T09:29:15;2.70;;;2.70;;
11510;SDS011;5812;48.864;9.190;2023-02-01T09:31:41;2.37;;;2.37;;
11510;SDS011;5812;48.864;9.190;2023-02-01T09:34:07;2.40;;;2.40;;
11510;SDS011;5812;48.864;9.190;2023-02-01T09:36:32;2.67;;;2.67;;
11510;SDS011;5812;48.864;9.190;2023-02-01T09:38:59;2.30;;;2.30;;
11510;SDS011;5812;48.864;9.190;2023-02-01T09:47:19;2.20;;;2.20;;
11510;SDS011;5812;48.864;9.190;2023-02-01T09:50:33;2.63;;;2.63;;
11510;SDS011;5812;48.864;9.190;2023-02-01T09:55:18;2.63;;;2.63;;
11510;SDS011;5812;48.864;9.190;2023-02-01T09:57:53;2.13;;;2.13;;
11510;SDS011;5812;48.864;9.190;2023-02-01T10:00:25;1.97;;;1.97;;
11510;SDS011;5812;48.864;9.190;2023-02-01T10:02:55;2.87;;;2.87;;
11510;SDS011;5812;48.864;9.190;2023-02-01T10:05:27;1.93;;;1.93;;
11510;SDS011;5812;48.864;9.190;2023-02-01T10:08:01;2.67;;;2.67;;
11510;SDS011;5812;48.864;9.190;2023-02-01T10:10:45;2.87;;;2.87;;
11510;SDS011;5812;48.864;9.190;2023-02-01T10:15:50;2.73;;;2.73;;
11510;SDS011;5812;48.864;9.190;2023-02-01T10:18:36;1.87;;;1.87;;
11510;SDS011;5812;48.864;9.190;2023-02-01T10:21:27;2.20;;;2.20;;
11510;SDS011;5812;48.864;9.190;2023-02-01T10:27:22;2.33;;;2.33;;
11510;SDS011;5812;48.864;9.190;2023-02-01T10:29:58;2.53;;;2.53;;
11510;SDS011;5812;48.864;9.190;2023-02-01T10:32:29;3.30;;;3.30;;
11510;SDS011;5812;48.864;9.190;2023-02-01T10:34:59;2.83;;;2.83;;
11510;SDS011;5812;48.864;9.190;2023-02-01T10:37:35;2.10;;;2.10;;
11510;SDS011;5812;48.864;9.190;2023-02-01T10:40:02;2.37;;;2.37;;
11510;SDS011;5812;48.864;9.190;2023-02-01T10:42:43;2.33;;;2.33;;
11510;SDS011;5812;48.864;9.190;2023-02-01T10:45:11;2.80;;;2.80;;
11510;SDS011;5812;48.864;9.190;2023-02-01T10:47:41;2.40;;;2.40;;
11510;SDS011;5812;48.864;9.190;2023-02-01T10:53:03;2.80;;;2.80;;
11510;SDS011;5812;48.864;9.190;2023-02-01T10:55:50;2.20;;;2.20;;
11510;SDS011;5812;48.864;9.190;2023-02-01T10:58:20;2.60;;;2.60;;
11510;SDS011;5812;48.864;9.190;2023-02-01T11:01:00;3.27;;;3.27;;
11510;SDS011;5812;48.864;9.190;2023-02-01T11:03:51;2.40;;;2.40;;
11510;SDS011;5812;48.864;9.190;2023-02-01T11:06:29;2.67;;;2.67;;
11510;SDS011;5812;48.864;9.190;2023-02-01T11:08:56;2.33;;;2.33;;
11510;SDS011;5812;48.864;9.190;2023-02-01T11:11:23;2.60;;;2.60;;
11510;SDS011;5812;48.864;9.190;2023-02-01T11:13:54;2.23;;;2.23;;
11510;SDS011;5812;48.864;9.190;2023-02-01T11:16:28;2.57;;;2.57;;
11510;SDS011;5812;48.864;9.190;2023-02-01T11:19:02;2.50;;;2.50;;
11510;SDS011;5812;48.864;9.190;2023-02-01T11:21:28;3.33;;;3.33;;
11510;SDS011;5812;48.864;9.190;2023-02-01T11:23:54;2.20;;;2.20;;
11510;SDS011;5812;48.864;9.190;2023-02-01T11:26:25;3.00;;;3.00;;
11510;SDS011;5812;48.864;9.190;2023-02-01T11:28:54;2.60;;;2.60;;
11510;SDS011;5812;48.864;9.190;2023-02-01T11:31:26;2.17;;;2.17;;
11510;SDS011;5812;48.864;9.190;2023-02-01T11:33:54;2.43;;;2.43;;
11510;SDS011;5812;48.864;9.190;2023-02-01T11:36:25;2.33;;;2.33;;
11510;SDS011;5812;48.864;9.190;2023-02-01T11:41:44;2.40;;;2.40;;
11510;SDS011;5812;48.864;9.190;2023-02-01T11:44:30;1.90;;;1.90;;
11510;SDS011;5812;48.864;9.190;2023-02-01T11:46:57;2.47;;;2.47;;
11510;SDS011;5812;48.864;9.190;2023-02-01T11:49:57;1.97;;;1.97;;
11510;SDS011;5812;48.864;9.190;2023-02-01T11:52:36;1.90;;;1.90;;
11510;SDS011;5812;48.864;9.190;2023-02-01T11:57:57;1.80;;;1.80;;
11510;SDS011;5812;48.864;9.190;2023-02-01T12:00:43;2.20;;;2.20;;
11510;SDS011;5812;48.864;9.190;2023-02-01T12:03:45;2.37;;;2.37;;
11510;SDS011;5812;48.864;9.190;2023-02-01T12:17:48;1.80;;;1.80;;
11510;SDS011;5812;48.864;9.190;2023-02-01T12:23:10;1.60;;;1.60;;
11510;SDS011;5812;48.864;9.190;2023-02-01T12:31:26;2.43;;;2.43;;
11510;SDS011;5812;48.864;9.190;2023-02-01T12:36:56;2.30;;;2.30;;
11510;SDS011;5812;48.864;9.190;2023-02-01T12:39:39;2.07;;;2.07;;
11510;SDS011;5812;48.864;9.190;2023-02-01T12:42:24;2.00;;;2.00;;
11510;SDS011;5812;48.864;9.190;2023-02-01T12:45:03;1.83;;;1.83;;
11510;SDS011;5812;48.864;9.190;2023-02-01T12:48:14;1.87;;;1.87;;
11510;SDS011;5812;48.864;9.190;2023-02-01T12:50:57;1.60;;;1.60;;
11510;SDS011;5812;48.864;9.190;2023-02-01T12:56:06;2.23;;;2.23;;
11510;SDS011;5812;48.864;9.190;2023-02-01T12:58:40;2.40;;;2.40;;
11510;SDS011;5812;48.864;9.190;2023-02-01T13:03:52;2.10;;;2.10;;
11510;SDS011;5812;48.864;9.190;2023-02-01T13:06:38;2.20;;;2.20;;
11510;SDS011;5812;48.864;9.190;2023-02-01T13:09:24;2.40;;;2.40;;
11510;SDS011;5812;48.864;9.190;2023-02-01T13:11:58;2.13;;;2.13;;
11510;SDS011;5812;48.864;9.190;2023-02-01T13:14:33;2.53;;;2.53;;
11510;SDS011;5812;48.864;9.190;2023-02-01T13:22:34;1.83;;;1.83;;
11510;SDS011;5812;48.864;9.190;2023-02-01T13:28:13;2.37;;;2.37;;
11510;SDS011;5812;48.864;9.190;2023-02-01T13:30:55;2.07;;;2.07;;
11510;SDS011;5812;48.864;9.190;2023-02-01T13:36:14;1.90;;;1.90;;
11510;SDS011;5812;48.864;9.190;2023-02-01T13:45:05;2.33;;;2.33;;
11510;SDS011;5812;48.864;9.190;2023-02-01T13:47:45;2.20;;;2.20;;
11510;SDS011;5812;48.864;9.190;2023-02-01T13:50:22;2.50;;;2.50;;
11510;SDS011;5812;48.864;9.190;2023-02-01T13:52:55;2.30;;;2.30;;
11510;SDS011;5812;48.864;9.190;2023-02-01T13:55:28;2.40;;;2.40;;
11510;SDS011;5812;48.864;9.190;2023-02-01T13:58:10;2.07;;;2.07;;
11510;SDS011;5812;48.864;9.190;2023-02-01T14:00:45;1.97;;;1.97;;
11510;SDS011;5812;48.864;9.190;2023-02-01T14:08:13;1.87;;;1.87;;
11510;SDS011;5812;48.864;9.190;2023-02-01T14:23:40;2.40;;;2.40;;
11510;SDS011;5812;48.864;9.190;2023-02-01T14:26:08;2.90;;;2.90;;
11510;SDS011;5812;48.864;9.190;2023-02-01T14:28:38;2.00;;;2.00;;
11510;SDS011;5812;48.864;9.190;2023-02-01T14:31:14;2.53;;;2.53;;
11510;SDS011;5812;48.864;9.190;2023-02-01T14:34:00;1.70;;;1.70;;
11510;SDS011;5812;48.864;9.190;2023-02-01T14:36:38;2.00;;;2.00;;
11510;SDS011;5812;48.864;9.190;2023-02-01T14:39:30;3.07;;;3.07;;
11510;SDS011;5812;48.864;9.190;2023-02-01T14:42:00;2.43;;;2.43;;
11510;SDS011;5812;48.864;9.190;2023-02-01T14:44:33;1.83;;;1.83;;
11510;SDS011;5812;48.864;9.190;2023-02-01T14:47:03;1.93;;;1.93;;
11510;SDS011;5812;48.864;9.190;2023-02-01T14:49:34;2.47;;;2.47;;
11510;SDS011;5812;48.864;9.190;2023-02-01T14:52:06;2.40;;;2.40;;
11510;SDS011;5812;48.864;9.190;2023-02-01T14:54:38;2.07;;;2.07;;
11510;SDS011;5812;48.864;9.190;2023-02-01T14:57:05;2.20;;;2.20;;
11510;SDS011;5812;48.864;9.190;2023-02-01T14:59:41;1.90;;;1.90;;
11510;SDS011;5812;48.864;9.190;2023-02-01T15:02:23;2.67;;;2.67;;
11510;SDS011;5812;48.864;9.190;2023-02-01T15:04:56;2.30;;;2.30;;
11510;SDS011;5812;48.864;9.190;2023-02-01T15:07:23;2.57;;;2.57;;
11510;SDS011;5812;48.864;9.190;2023-02-01T15:09:51;2.33;;;2.33;;
11510;SDS011;5812;48.864;9.190;2023-02-01T15:12:19;1.90;;;1.90;;
11510;SDS011;5812;48.864;9.190;2023-02-01T15:15:14;2.13;;;2.13;;
11510;SDS011;5812;48.864;9.190;2023-02-01T15:17:41;2.07;;;2.07;;
11510;SDS011;5812;48.864;9.190;2023-02-01T15:20:18;3.17;;;3.17;;
11510;SDS011;5812;48.864;9.190;2023-02-01T15:22:53;2.67;;;2.67;;
11510;SDS011;5812;48.864;9.190;2023-02-01T15:25:25;2.00;;;2.00;;
11510;SDS011;5812;48.864;9.190;2023-02-01T15:27:52;2.37;;;2.37;;
11510;SDS011;5812;48.864;9.190;2023-02-01T15:30:20;2.10;;;2.10;;
11510;SDS011;5812;48.864;9.190;2023-02-01T15:32:48;1.60;;;1.60;;
11510;SDS011;5812;48.864;9.190;2023-02-01T15:35:38;1.90;;;1.90;;
11510;SDS011;5812;48.864;9.190;2023-02-01T15:40:56;2.03;;;2.03;;
11510;SDS011;5812;48.864;9.190;2023-02-01T15:43:31;1.77;;;1.77;;
11510;SDS011;5812;48.864;9.190;2023-02-01T15:46:03;2.00;;;2.00;;
11510;SDS011;5812;48.864;9.190;2023-02-01T15:48:39;1.97;;;1.97;;
11510;SDS011;5812;48.864;9.190;2023-02-01T15:51:14;1.93;;;1.93;;
11510;SDS011;5812;48.864;9.190;2023-02-01T15:53:45;1.60;;;1.60;;
11510;SDS011;5812;48.864;9.190;2023-02-01T15:56:13;2.17;;;2.17;;
11510;SDS011;5812;48.864;9.190;2023-02-01T15:58:40;2.83;;;2.83;;
11510;SDS011;5812;48.864;9.190;2023-02-01T16:01:10;1.93;;;1.93;;
11510;SDS011;5812;48.864;9.190;2023-02-01T16:03:40;2.10;;;2.10;;
11510;SDS011;5812;48.864;9.190;2023-02-01T16:06:11;2.03;;;2.03;;
11510;SDS011;5812;48.864;9.190;2023-02-01T16:08:53;2.27;;;2.27;;
11510;SDS011;5812;48.864;9.190;2023-02-01T16:11:28;1.63;;;1.63;;
11510;SDS011;5812;48.864;9.190;2023-02-01T16:13:56;1.87;;;1.87;;
11510;SDS011;5812;48.864;9.190;2023-02-01T16:16:23;2.10;;;2.10;;
11510;SDS011;5812;48.864;9.190;2023-02-01T16:18:49;1.77;;;1.77;;
11510;SDS011;5812;48.864;9.190;2023-02-01T16:21:15;2.83;;;2.83;;
11510;SDS011;5812;48.864;9.190;2023-02-01T16:23:41;2.07;;;2.07;;
11510;SDS011;5812;48.864;9.190;2023-02-01T16:26:06;2.30;;;2.30;;
11510;SDS011;5812;48.864;9.190;2023-02-01T16:28:32;1.93;;;1.93;;
11510;SDS011;5812;48.864;9.190;2023-02-01T16:30:58;1.93;;;1.93;;
11510;SDS011;5812;48.864;9.190;2023-02-01T16:33:25;2.40;;;2.40;;
11510;SDS011;5812;48.864;9.190;2023-02-01T16:35:51;1.80;;;1.80;;
11510;SDS011;5812;48.864;9.190;2023-02-01T16:38:22;1.27;;;1.27;;
11510;SDS011;5812;48.864;9.190;2023-02-01T16:40:48;2.27;;;2.27;;
11510;SDS011;5812;48.864;9.190;2023-02-01T16:43:15;2.33;;;2.33;;
11510;SDS011;5812;48.864;9.190;2023-02-01T16:45:43;2.87;;;2.87;;
11510;SDS011;5812;48.864;9.190;2023-02-01T16:48:18;2.40;;;2.40;;
11510;SDS011;5812;48.864;9.190;2023-02-01T16:50:56;2.33;;;2.33;;
11510;SDS011;5812;48.864;9.190;2023-02-01T16:53:23;1.73;;;1.73;;
11510;SDS011;5812;48.864;9.190;2023-02-01T16:55:52;2.07;;;2.07;;
11510;SDS011;5812;48.864;9.190;2023-02-01T16:58:18;1.77;;;1.77;;
11510;SDS011;5812;48.864;9.190;2023-02-01T17:00:45;1.77;;;1.77;;
11510;SDS011;5812;48.864;9.190;2023-02-01T17:03:12;2.90;;;2.90;;
11510;SDS011;5812;48.864;9.190;2023-02-01T17:05:41;2.17;;;2.17;;
11510;SDS011;5812;48.864;9.190;2023-02-01T17:08:11;2.43;;;2.43;;
11510;SDS011;5812;48.864;9.190;2023-02-01T17:10:39;1.60;;;1.60;;
11510;SDS011;5812;48.864;9.190;2023-02-01T17:13:08;2.23;;;2.23;;